sensor_id;sensor_type;location;lat;lon;timestamp;pressure;altitude;pressure_sealevel;temperature
28905;BMP280;60848;53.884;11.446;2023-04-29T00:01:56;100902.66;;;9.40
28905;BMP280;60848;53.884;11.446;2023-04-29T00:04:25;100894.44;;;9.38
28905;BMP280;60848;53.884;11.446;2023-04-29T00:06:54;100901.84;;;9.36
28905;BMP280;60848;53.884;11.446;2023-04-29T00:09:22;100899.56;;;9.34
28905;BMP280;60848;53.884;11.446;2023-04-29T00:11:50;100902.53;;;9.32
28905;BMP280;60848;53.884;11.446;2023-04-29T00:14:19;100899.91;;;9.32
28905;BMP280;60848;53.884;11.446;2023-04-29T00:16:48;100902.16;;;9.34
28905;BMP280;60848;53.884;11.446;2023-04-29T00:19:17;100898.03;;;9.29
28905;BMP280;60848;53.884;11.446;2023-04-29T00:21:46;100895.81;;;9.31
28905;BMP280;60848;53.884;11.446;2023-04-29T00:24:14;100907.31;;;9.30
28905;BMP280;60848;53.884;11.446;2023-04-29T00:26:42;100896.50;;;9.28
28905;BMP280;60848;53.884;11.446;2023-04-29T00:29:10;100899.09;;;9.28
28905;BMP280;60848;53.884;11.446;2023-04-29T00:31:39;100892.03;;;9.29
28905;BMP280;60848;53.884;11.446;2023-04-29T00:34:08;100895.72;;;9.28
28905;BMP280;60848;53.884;11.446;2023-04-29T00:36:37;100891.19;;;9.25
28905;BMP280;60848;53.884;11.446;2023-04-29T00:39:05;100889.25;;;9.22
28905;BMP280;60848;53.884;11.446;2023-04-29T00:41:33;100898.19;;;9.21
28905;BMP280;60848;53.884;11.446;2023-04-29T00:44:02;100896.69;;;9.20
28905;BMP280;60848;53.884;11.446;2023-04-29T00:46:30;100887.75;;;9.21
28905;BMP280;60848;53.884;11.446;2023-04-29T00:48:59;100886.41;;;9.27
28905;BMP280;60848;53.884;11.446;2023-04-29T00:51:29;100892.44;;;9.31
28905;BMP280;60848;53.884;11.446;2023-04-29T00:53:57;100904.13;;;9.37
28905;BMP280;60848;53.884;11.446;2023-04-29T00:56:25;100898.59;;;9.42
28905;BMP280;60848;53.884;11.446;2023-04-29T00:58:57;100898.38;;;9.51
28905;BMP280;60848;53.884;11.446;2023-04-29T01:01:25;100900.75;;;9.56
28905;BMP280;60848;53.884;11.446;2023-04-29T01:03:54;100897.06;;;9.60
28905;BMP280;60848;53.884;11.446;2023-04-29T01:06:26;100904.63;;;9.65
28905;BMP280;60848;53.884;11.446;2023-04-29T01:09:05;100906.56;;;9.68
28905;BMP280;60848;53.884;11.446;2023-04-29T01:11:41;100907.38;;;9.72
28905;BMP280;60848;53.884;11.446;2023-04-29T01:14:11;100909.25;;;9.75
28905;BMP280;60848;53.884;11.446;2023-04-29T01:16:43;100916.44;;;9.78
28905;BMP280;60848;53.884;11.446;2023-04-29T01:19:16;100915.31;;;9.79
28905;BMP280;60848;53.884;11.446;2023-04-29T01:21:47;100907.13;;;9.81
28905;BMP280;60848;53.884;11.446;2023-04-29T01:24:17;100916.50;;;9.82
28905;BMP280;60848;53.884;11.446;2023-04-29T01:26:50;100904.59;;;9.84
28905;BMP280;60848;53.884;11.446;2023-04-29T01:29:22;100905.72;;;9.87
28905;BMP280;60848;53.884;11.446;2023-04-29T01:31:59;100911.38;;;9.89
28905;BMP280;60848;53.884;11.446;2023-04-29T01:34:33;100909.53;;;9.89
28905;BMP280;60848;53.884;11.446;2023-04-29T01:37:09;100910.66;;;9.92
28905;BMP280;60848;53.884;11.446;2023-04-29T01:39:44;100911.09;;;9.94
28905;BMP280;60848;53.884;11.446;2023-04-29T01:42:17;100913.34;;;9.95
28905;BMP280;60848;53.884;11.446;2023-04-29T01:44:48;100908.81;;;9.92
28905;BMP280;60848;53.884;11.446;2023-04-29T01:47:18;100902.84;;;9.92
28905;BMP280;60848;53.884;11.446;2023-04-29T01:49:48;100903.22;;;9.90
28905;BMP280;60848;53.884;11.446;2023-04-29T01:52:17;100905.44;;;9.92
28905;BMP280;60848;53.884;11.446;2023-04-29T01:54:46;100902.50;;;9.93
28905;BMP280;60848;53.884;11.446;2023-04-29T01:57:14;100911.16;;;9.97
28905;BMP280;60848;53.884;11.446;2023-04-29T01:59:43;100907.44;;;9.98
28905;BMP280;60848;53.884;11.446;2023-04-29T02:02:11;100907.09;;;10.00
28905;BMP280;60848;53.884;11.446;2023-04-29T02:04:41;100908.19;;;9.99
28905;BMP280;60848;53.884;11.446;2023-04-29T02:07:10;100917.13;;;9.98
28905;BMP280;60848;53.884;11.446;2023-04-29T02:09:38;100915.97;;;9.95
28905;BMP280;60848;53.884;11.446;2023-04-29T02:12:07;100918.56;;;9.95
28905;BMP280;60848;53.884;11.446;2023-04-29T02:14:36;100921.59;;;9.97
28905;BMP280;60848;53.884;11.446;2023-04-29T02:17:04;100924.97;;;9.98
28905;BMP280;60848;53.884;11.446;2023-04-29T02:19:32;100928.00;;;10.00
28905;BMP280;60848;53.884;11.446;2023-04-29T02:22:00;100927.63;;;10.01
28905;BMP280;60848;53.884;11.446;2023-04-29T02:24:29;100920.91;;;10.00
28905;BMP280;60848;53.884;11.446;2023-04-29T02:26:57;100922.41;;;10.01
28905;BMP280;60848;53.884;11.446;2023-04-29T02:29:27;100926.53;;;10.02
28905;BMP280;60848;53.884;11.446;2023-04-29T02:31:56;100928.03;;;10.03
28905;BMP280;60848;53.884;11.446;2023-04-29T02:34:25;100929.16;;;10.02
28905;BMP280;60848;53.884;11.446;2023-04-29T02:36:53;100929.84;;;9.99
28905;BMP280;60848;53.884;11.446;2023-04-29T02:39:21;100938.81;;;9.98
28905;BMP280;60848;53.884;11.446;2023-04-29T02:41:53;100944.03;;;9.98
28905;BMP280;60848;53.884;11.446;2023-04-29T02:44:21;100943.25;;;9.98
28905;BMP280;60848;53.884;11.446;2023-04-29T02:46:51;100951.88;;;9.98
28905;BMP280;60848;53.884;11.446;2023-04-29T02:49:19;100944.75;;;9.99
28905;BMP280;60848;53.884;11.446;2023-04-29T02:51:47;100945.53;;;9.99
28905;BMP280;60848;53.884;11.446;2023-04-29T02:54:16;100943.69;;;10.00
28905;BMP280;60848;53.884;11.446;2023-04-29T02:56:44;100940.69;;;10.01
28905;BMP280;60848;53.884;11.446;2023-04-29T02:59:13;100949.28;;;10.02
28905;BMP280;60848;53.884;11.446;2023-04-29T03:01:41;100947.03;;;10.00
28905;BMP280;60848;53.884;11.446;2023-04-29T03:04:11;100952.25;;;10.00
28905;BMP280;60848;53.884;11.446;2023-04-29T03:06:39;100948.91;;;10.00
28905;BMP280;60848;53.884;11.446;2023-04-29T03:09:08;100953.75;;;10.01
28905;BMP280;60848;53.884;11.446;2023-04-29T03:11:36;100951.13;;;10.01
28905;BMP280;60848;53.884;11.446;2023-04-29T03:14:04;100945.53;;;9.99
28905;BMP280;60848;53.884;11.446;2023-04-29T03:16:32;100942.91;;;9.99
28905;BMP280;60848;53.884;11.446;2023-04-29T03:19:01;100947.38;;;9.99
28905;BMP280;60848;53.884;11.446;2023-04-29T03:21:30;100943.59;;;9.96
28905;BMP280;60848;53.884;11.446;2023-04-29T03:23:59;100957.41;;;9.97
28905;BMP280;60848;53.884;11.446;2023-04-29T03:26:27;100952.53;;;9.95
28905;BMP280;60848;53.884;11.446;2023-04-29T03:28:56;100950.28;;;9.94
28905;BMP280;60848;53.884;11.446;2023-04-29T03:31:24;100949.50;;;9.93
28905;BMP280;60848;53.884;11.446;2023-04-29T03:33:53;100952.88;;;9.94
28905;BMP280;60848;53.884;11.446;2023-04-29T03:36:21;100955.50;;;9.94
28905;BMP280;60848;53.884;11.446;2023-04-29T03:38:51;100954.72;;;9.93
28905;BMP280;60848;53.884;11.446;2023-04-29T03:41:19;100955.84;;;9.92
28905;BMP280;60848;53.884;11.446;2023-04-29T03:43:49;100956.56;;;9.93
28905;BMP280;60848;53.884;11.446;2023-04-29T03:46:18;100966.28;;;9.92
28905;BMP280;60848;53.884;11.446;2023-04-29T03:48:46;100965.53;;;9.92
28905;BMP280;60848;53.884;11.446;2023-04-29T03:51:15;100962.91;;;9.92
28905;BMP280;60848;53.884;11.446;2023-04-29T03:53:43;100965.19;;;9.93
28905;BMP280;60848;53.884;11.446;2023-04-29T03:56:13;100974.84;;;9.93
28905;BMP280;60848;53.884;11.446;2023-04-29T03:58:43;100981.19;;;9.92
28905;BMP280;60848;53.884;11.446;2023-04-29T04:01:12;100989.81;;;9.92
28905;BMP280;60848;53.884;11.446;2023-04-29T04:03:43;100990.16;;;9.91
28905;BMP280;60848;53.884;11.446;2023-04-29T04:06:11;100994.25;;;9.92
28905;BMP280;60848;53.884;11.446;2023-04-29T04:08:39;100986.03;;;9.90
28905;BMP280;60848;53.884;11.446;2023-04-29T04:11:08;100994.97;;;9.89
28905;BMP280;60848;53.884;11.446;2023-04-29T04:13:37;100997.56;;;9.89
28905;BMP280;60848;53.884;11.446;2023-04-29T04:16:06;101005.81;;;9.91
28905;BMP280;60848;53.884;11.446;2023-04-29T04:18:34;101013.31;;;9.92
28905;BMP280;60848;53.884;11.446;2023-04-29T04:21:06;101011.13;;;9.94
28905;BMP280;60848;53.884;11.446;2023-04-29T04:23:34;101024.91;;;9.95
28905;BMP280;60848;53.884;11.446;2023-04-29T04:26:02;101017.78;;;9.92
28905;BMP280;60848;53.884;11.446;2023-04-29T04:28:30;101014.81;;;9.93
28905;BMP280;60848;53.884;11.446;2023-04-29T04:31:00;101018.94;;;9.94
28905;BMP280;60848;53.884;11.446;2023-04-29T04:33:28;101024.59;;;9.96
28905;BMP280;60848;53.884;11.446;2023-04-29T04:35:57;101027.94;;;9.97
28905;BMP280;60848;53.884;11.446;2023-04-29T04:38:25;101029.47;;;9.98
28905;BMP280;60848;53.884;11.446;2023-04-29T04:40:53;101033.59;;;9.99
28905;BMP280;60848;53.884;11.446;2023-04-29T04:43:22;101035.47;;;9.98
28905;BMP280;60848;53.884;11.446;2023-04-29T04:45:50;101047.03;;;10.01
28905;BMP280;60848;53.884;11.446;2023-04-29T04:48:20;101039.59;;;10.03
28905;BMP280;60848;53.884;11.446;2023-04-29T04:50:48;101044.09;;;10.02
28905;BMP280;60848;53.884;11.446;2023-04-29T04:53:16;101043.75;;;10.04
28905;BMP280;60848;53.884;11.446;2023-04-29T04:55:45;101050.91;;;10.07
28905;BMP280;60848;53.884;11.446;2023-04-29T04:58:13;101049.81;;;10.08
28905;BMP280;60848;53.884;11.446;2023-04-29T05:00:43;101043.13;;;10.10
28905;BMP280;60848;53.884;11.446;2023-04-29T05:03:12;101050.28;;;10.13
28905;BMP280;60848;53.884;11.446;2023-04-29T05:05:42;101055.16;;;10.15
28905;BMP280;60848;53.884;11.446;2023-04-29T05:08:10;101061.94;;;10.19
28905;BMP280;60848;53.884;11.446;2023-04-29T05:10:38;101062.34;;;10.21
28905;BMP280;60848;53.884;11.446;2023-04-29T05:13:06;101063.94;;;10.26
28905;BMP280;60848;53.884;11.446;2023-04-29T05:15:35;101071.50;;;10.31
28905;BMP280;60848;53.884;11.446;2023-04-29T05:18:03;101074.53;;;10.33
28905;BMP280;60848;53.884;11.446;2023-04-29T05:20:31;101080.16;;;10.35
28905;BMP280;60848;53.884;11.446;2023-04-29T05:23:01;101073.81;;;10.36
28905;BMP280;60848;53.884;11.446;2023-04-29T05:25:29;101081.72;;;10.39
28905;BMP280;60848;53.884;11.446;2023-04-29T05:27:57;101083.59;;;10.39
28905;BMP280;60848;53.884;11.446;2023-04-29T05:30:26;101081.41;;;10.41
28905;BMP280;60848;53.884;11.446;2023-04-29T05:32:54;101080.25;;;10.42
28905;BMP280;60848;53.884;11.446;2023-04-29T05:35:22;101094.94;;;10.46
28905;BMP280;60848;53.884;11.446;2023-04-29T05:37:51;101095.72;;;10.50
28905;BMP280;60848;53.884;11.446;2023-04-29T05:40:20;101101.03;;;10.54
28905;BMP280;60848;53.884;11.446;2023-04-29T05:42:49;101105.59;;;10.57
28905;BMP280;60848;53.884;11.446;2023-04-29T05:45:17;101112.69;;;10.60
28905;BMP280;60848;53.884;11.446;2023-04-29T05:47:46;101120.63;;;10.63
28905;BMP280;60848;53.884;11.446;2023-04-29T05:50:14;101119.91;;;10.66
28905;BMP280;60848;53.884;11.446;2023-04-29T05:52:42;101124.78;;;10.68
28905;BMP280;60848;53.884;11.446;2023-04-29T05:55:10;101124.13;;;10.71
28905;BMP280;60848;53.884;11.446;2023-04-29T05:57:40;101129.03;;;10.76
28905;BMP280;60848;53.884;11.446;2023-04-29T06:00:09;101139.16;;;10.77
28905;BMP280;60848;53.884;11.446;2023-04-29T06:02:37;101144.38;;;10.77
28905;BMP280;60848;53.884;11.446;2023-04-29T06:05:23;101152.66;;;10.80
28905;BMP280;60848;53.884;11.446;2023-04-29T06:07:52;101144.38;;;10.77
28905;BMP280;60848;53.884;11.446;2023-04-29T06:10:20;101152.22;;;10.77
28905;BMP280;60848;53.884;11.446;2023-04-29T06:12:50;101149.97;;;10.76
28905;BMP280;60848;53.884;11.446;2023-04-29T06:15:18;101140.97;;;10.73
28905;BMP280;60848;53.884;11.446;2023-04-29T06:17:46;101148.47;;;10.75
28905;BMP280;60848;53.884;11.446;2023-04-29T06:20:15;101150.09;;;10.83
28905;BMP280;60848;53.884;11.446;2023-04-29T06:22:44;101154.00;;;10.93
28905;BMP280;60848;53.884;11.446;2023-04-29T06:25:13;101160.19;;;11.07
28905;BMP280;60848;53.884;11.446;2023-04-29T06:27:41;101166.06;;;11.23
28905;BMP280;60848;53.884;11.446;2023-04-29T06:30:12;101162.81;;;11.56
28905;BMP280;60848;53.884;11.446;2023-04-29T06:32:40;101167.81;;;12.01
28905;BMP280;60848;53.884;11.446;2023-04-29T06:35:08;101167.13;;;12.37
28905;BMP280;60848;53.884;11.446;2023-04-29T06:37:37;101161.50;;;12.79
28905;BMP280;60848;53.884;11.446;2023-04-29T06:40:06;101168.19;;;13.20
28905;BMP280;60848;53.884;11.446;2023-04-29T06:42:34;101170.72;;;13.70
28905;BMP280;60848;53.884;11.446;2023-04-29T06:45:05;101178.00;;;14.23
28905;BMP280;60848;53.884;11.446;2023-04-29T06:47:35;101181.41;;;14.72
28905;BMP280;60848;53.884;11.446;2023-04-29T06:50:04;101180.25;;;15.15
28905;BMP280;60848;53.884;11.446;2023-04-29T06:52:32;101185.38;;;15.61
28905;BMP280;60848;53.884;11.446;2023-04-29T06:55:01;101185.59;;;15.94
28905;BMP280;60848;53.884;11.446;2023-04-29T06:57:29;101178.19;;;16.30
28905;BMP280;60848;53.884;11.446;2023-04-29T06:59:58;101187.72;;;16.65
28905;BMP280;60848;53.884;11.446;2023-04-29T07:02:26;101188.56;;;16.95
28905;BMP280;60848;53.884;11.446;2023-04-29T07:04:56;101197.25;;;17.29
28905;BMP280;60848;53.884;11.446;2023-04-29T07:07:25;101195.03;;;17.58
28905;BMP280;60848;53.884;11.446;2023-04-29T07:09:54;101207.50;;;17.84
28905;BMP280;60848;53.884;11.446;2023-04-29T07:12:22;101209.13;;;18.04
28905;BMP280;60848;53.884;11.446;2023-04-29T07:14:50;101206.84;;;18.29
28905;BMP280;60848;53.884;11.446;2023-04-29T07:17:19;101204.66;;;18.47
28905;BMP280;60848;53.884;11.446;2023-04-29T07:19:47;101197.19;;;18.62
28905;BMP280;60848;53.884;11.446;2023-04-29T07:22:17;101198.47;;;18.77
28905;BMP280;60848;53.884;11.446;2023-04-29T07:24:45;101189.75;;;18.77
28905;BMP280;60848;53.884;11.446;2023-04-29T07:27:13;101200.72;;;18.79
28905;BMP280;60848;53.884;11.446;2023-04-29T07:29:42;101207.63;;;18.73
28905;BMP280;60848;53.884;11.446;2023-04-29T07:32:10;101210.63;;;18.75
28905;BMP280;60848;53.884;11.446;2023-04-29T07:34:39;101213.84;;;18.86
28905;BMP280;60848;53.884;11.446;2023-04-29T07:37:07;101216.34;;;18.93
28905;BMP280;60848;53.884;11.446;2023-04-29T07:39:37;101224.56;;;18.98
28905;BMP280;60848;53.884;11.446;2023-04-29T07:42:05;101227.88;;;19.06
28905;BMP280;60848;53.884;11.446;2023-04-29T07:44:33;101222.06;;;19.11
28905;BMP280;60848;53.884;11.446;2023-04-29T07:47:02;101234.13;;;19.15
28905;BMP280;60848;53.884;11.446;2023-04-29T07:49:30;101236.22;;;19.24
28905;BMP280;60848;53.884;11.446;2023-04-29T07:51:58;101236.81;;;19.31
28905;BMP280;60848;53.884;11.446;2023-04-29T07:54:34;101236.41;;;19.33
28905;BMP280;60848;53.884;11.446;2023-04-29T07:57:06;101247.09;;;19.29
28905;BMP280;60848;53.884;11.446;2023-04-29T07:59:34;101241.00;;;19.32
28905;BMP280;60848;53.884;11.446;2023-04-29T08:02:02;101245.66;;;19.25
28905;BMP280;60848;53.884;11.446;2023-04-29T08:04:30;101255.94;;;19.23
28905;BMP280;60848;53.884;11.446;2023-04-29T08:06:59;101257.81;;;19.22
28905;BMP280;60848;53.884;11.446;2023-04-29T08:09:28;101270.16;;;19.32
28905;BMP280;60848;53.884;11.446;2023-04-29T08:11:56;101267.56;;;19.48
28905;BMP280;60848;53.884;11.446;2023-04-29T08:14:27;101269.50;;;19.64
28905;BMP280;60848;53.884;11.446;2023-04-29T08:16:55;101268.38;;;19.81
28905;BMP280;60848;53.884;11.446;2023-04-29T08:19:29;101272.31;;;19.92
28905;BMP280;60848;53.884;11.446;2023-04-29T08:21:58;101273.56;;;20.04
28905;BMP280;60848;53.884;11.446;2023-04-29T08:24:27;101275.97;;;20.14
28905;BMP280;60848;53.884;11.446;2023-04-29T08:26:56;101279.53;;;20.24
28905;BMP280;60848;53.884;11.446;2023-04-29T08:29:26;101276.97;;;20.36
28905;BMP280;60848;53.884;11.446;2023-04-29T08:31:55;101277.13;;;20.45
28905;BMP280;60848;53.884;11.446;2023-04-29T08:34:23;101282.84;;;20.44
28905;BMP280;60848;53.884;11.446;2023-04-29T08:36:52;101286.75;;;20.39
28905;BMP280;60848;53.884;11.446;2023-04-29T08:39:21;101287.75;;;20.29
28905;BMP280;60848;53.884;11.446;2023-04-29T08:41:50;101304.78;;;20.32
28905;BMP280;60848;53.884;11.446;2023-04-29T08:44:20;101298.97;;;20.37
28905;BMP280;60848;53.884;11.446;2023-04-29T08:46:50;101300.22;;;20.32
28905;BMP280;60848;53.884;11.446;2023-04-29T08:49:19;101300.47;;;20.22
28905;BMP280;60848;53.884;11.446;2023-04-29T08:51:48;101315.66;;;20.21
28905;BMP280;60848;53.884;11.446;2023-04-29T08:54:17;101308.66;;;20.11
28905;BMP280;60848;53.884;11.446;2023-04-29T08:56:46;101315.97;;;20.07
28905;BMP280;60848;53.884;11.446;2023-04-29T08:59:15;101311.16;;;20.18
28905;BMP280;60848;53.884;11.446;2023-04-29T09:01:46;101320.41;;;20.14
28905;BMP280;60848;53.884;11.446;2023-04-29T09:04:28;101325.56;;;20.21
28905;BMP280;60848;53.884;11.446;2023-04-29T09:06:58;101326.69;;;20.36
28905;BMP280;60848;53.884;11.446;2023-04-29T09:09:27;101326.88;;;20.45
28905;BMP280;60848;53.884;11.446;2023-04-29T09:11:56;101335.31;;;20.56
28905;BMP280;60848;53.884;11.446;2023-04-29T09:14:25;101344.91;;;20.69
28905;BMP280;60848;53.884;11.446;2023-04-29T09:16:53;101343.16;;;20.79
28905;BMP280;60848;53.884;11.446;2023-04-29T09:19:31;101344.88;;;20.85
28905;BMP280;60848;53.884;11.446;2023-04-29T09:22:01;101341.06;;;20.70
28905;BMP280;60848;53.884;11.446;2023-04-29T09:24:30;101347.72;;;20.62
28905;BMP280;60848;53.884;11.446;2023-04-29T09:26:59;101349.63;;;20.62
28905;BMP280;60848;53.884;11.446;2023-04-29T09:29:29;101346.13;;;20.65
28905;BMP280;60848;53.884;11.446;2023-04-29T09:31:59;101349.94;;;20.64
28905;BMP280;60848;53.884;11.446;2023-04-29T09:34:33;101353.44;;;20.61
28905;BMP280;60848;53.884;11.446;2023-04-29T09:37:23;101351.38;;;20.52
28905;BMP280;60848;53.884;11.446;2023-04-29T09:39:52;101350.59;;;20.52
28905;BMP280;60848;53.884;11.446;2023-04-29T09:42:21;101362.34;;;20.54
28905;BMP280;60848;53.884;11.446;2023-04-29T09:44:49;101367.09;;;20.63
28905;BMP280;60848;53.884;11.446;2023-04-29T09:47:29;101372.97;;;20.70
28905;BMP280;60848;53.884;11.446;2023-04-29T09:50:11;101370.88;;;20.78
28905;BMP280;60848;53.884;11.446;2023-04-29T09:52:42;101371.81;;;20.87
28905;BMP280;60848;53.884;11.446;2023-04-29T09:55:10;101376.59;;;20.92
28905;BMP280;60848;53.884;11.446;2023-04-29T09:57:42;101383.97;;;21.01
28905;BMP280;60848;53.884;11.446;2023-04-29T10:00:12;101382.13;;;21.14
28905;BMP280;60848;53.884;11.446;2023-04-29T10:02:44;101384.50;;;21.24
28905;BMP280;60848;53.884;11.446;2023-04-29T10:05:15;101394.53;;;21.33
28905;BMP280;60848;53.884;11.446;2023-04-29T10:07:46;101393.19;;;21.41
28905;BMP280;60848;53.884;11.446;2023-04-29T10:10:15;101387.03;;;21.44
28905;BMP280;60848;53.884;11.446;2023-04-29T10:12:44;101387.59;;;21.51
28905;BMP280;60848;53.884;11.446;2023-04-29T10:15:25;101392.06;;;21.54
28905;BMP280;60848;53.884;11.446;2023-04-29T10:18:02;101390.41;;;21.44
28905;BMP280;60848;53.884;11.446;2023-04-29T10:20:32;101388.63;;;21.41
28905;BMP280;60848;53.884;11.446;2023-04-29T10:23:02;101383.97;;;21.45
28905;BMP280;60848;53.884;11.446;2023-04-29T10:25:31;101387.97;;;21.37
28905;BMP280;60848;53.884;11.446;2023-04-29T10:28:03;101389.47;;;21.38
28905;BMP280;60848;53.884;11.446;2023-04-29T10:30:33;101387.56;;;21.39
28905;BMP280;60848;53.884;11.446;2023-04-29T10:33:03;101392.28;;;21.47
28905;BMP280;60848;53.884;11.446;2023-04-29T10:35:34;101386.66;;;21.58
28905;BMP280;60848;53.884;11.446;2023-04-29T10:38:09;101387.19;;;21.65
28905;BMP280;60848;53.884;11.446;2023-04-29T10:40:43;101389.44;;;21.79
28905;BMP280;60848;53.884;11.446;2023-04-29T10:43:13;101385.41;;;21.87
28905;BMP280;60848;53.884;11.446;2023-04-29T10:45:42;101388.41;;;21.89
28905;BMP280;60848;53.884;11.446;2023-04-29T10:48:13;101390.31;;;21.89
28905;BMP280;60848;53.884;11.446;2023-04-29T10:51:02;101387.63;;;21.76
28905;BMP280;60848;53.884;11.446;2023-04-29T10:53:31;101395.41;;;21.71
28905;BMP280;60848;53.884;11.446;2023-04-29T10:56:06;101387.53;;;21.80
28905;BMP280;60848;53.884;11.446;2023-04-29T10:58:43;101398.63;;;22.03
28905;BMP280;60848;53.884;11.446;2023-04-29T11:01:14;101402.78;;;22.29
28905;BMP280;60848;53.884;11.446;2023-04-29T11:03:51;101407.25;;;22.45
28905;BMP280;60848;53.884;11.446;2023-04-29T11:06:40;101407.03;;;22.52
28905;BMP280;60848;53.884;11.446;2023-04-29T11:09:12;101404.81;;;22.50
28905;BMP280;60848;53.884;11.446;2023-04-29T11:14:40;101402.53;;;22.61
28905;BMP280;60848;53.884;11.446;2023-04-29T11:17:12;101401.91;;;22.57
28905;BMP280;60848;53.884;11.446;2023-04-29T11:19:43;101404.69;;;22.54
28905;BMP280;60848;53.884;11.446;2023-04-29T11:22:28;101403.44;;;22.46
28905;BMP280;60848;53.884;11.446;2023-04-29T11:25:01;101399.19;;;22.36
28905;BMP280;60848;53.884;11.446;2023-04-29T11:27:31;101400.34;;;22.35
28905;BMP280;60848;53.884;11.446;2023-04-29T11:30:02;101398.84;;;22.34
28905;BMP280;60848;53.884;11.446;2023-04-29T11:32:34;101394.91;;;22.38
28905;BMP280;60848;53.884;11.446;2023-04-29T11:35:08;101398.84;;;22.46
28905;BMP280;60848;53.884;11.446;2023-04-29T11:37:40;101400.25;;;22.51
28905;BMP280;60848;53.884;11.446;2023-04-29T11:40:10;101417.19;;;22.57
28905;BMP280;60848;53.884;11.446;2023-04-29T11:42:43;101408.00;;;22.58
28905;BMP280;60848;53.884;11.446;2023-04-29T11:45:12;101404.16;;;22.59
28905;BMP280;60848;53.884;11.446;2023-04-29T11:47:43;101413.50;;;22.63
28905;BMP280;60848;53.884;11.446;2023-04-29T11:50:14;101409.69;;;22.64
28905;BMP280;60848;53.884;11.446;2023-04-29T11:52:46;101408.72;;;22.58
28905;BMP280;60848;53.884;11.446;2023-04-29T11:55:15;101414.09;;;22.46
28905;BMP280;60848;53.884;11.446;2023-04-29T11:57:43;101413.63;;;22.47
28905;BMP280;60848;53.884;11.446;2023-04-29T12:00:16;101420.25;;;22.55
28905;BMP280;60848;53.884;11.446;2023-04-29T12:02:45;101421.00;;;22.56
28905;BMP280;60848;53.884;11.446;2023-04-29T12:05:14;101423.25;;;22.45
28905;BMP280;60848;53.884;11.446;2023-04-29T12:07:48;101420.19;;;22.46
28905;BMP280;60848;53.884;11.446;2023-04-29T12:10:17;101425.06;;;22.60
28905;BMP280;60848;53.884;11.446;2023-04-29T12:12:48;101428.50;;;22.61
28905;BMP280;60848;53.884;11.446;2023-04-29T12:15:16;101427.19;;;22.65
28905;BMP280;60848;53.884;11.446;2023-04-29T12:17:45;101422.47;;;22.69
28905;BMP280;60848;53.884;11.446;2023-04-29T12:20:13;101431.66;;;22.68
28905;BMP280;60848;53.884;11.446;2023-04-29T12:22:42;101419.38;;;22.71
28905;BMP280;60848;53.884;11.446;2023-04-29T12:25:12;101424.19;;;22.76
28905;BMP280;60848;53.884;11.446;2023-04-29T12:27:42;101417.63;;;22.89
28905;BMP280;60848;53.884;11.446;2023-04-29T12:30:11;101426.78;;;23.01
28905;BMP280;60848;53.884;11.446;2023-04-29T12:32:40;101431.47;;;22.97
28905;BMP280;60848;53.884;11.446;2023-04-29T12:35:14;101420.56;;;23.04
28905;BMP280;60848;53.884;11.446;2023-04-29T12:37:47;101424.41;;;23.03
28905;BMP280;60848;53.884;11.446;2023-04-29T12:40:18;101421.34;;;22.92
28905;BMP280;60848;53.884;11.446;2023-04-29T12:42:47;101424.47;;;22.90
28905;BMP280;60848;53.884;11.446;2023-04-29T12:45:28;101427.75;;;22.94
28905;BMP280;60848;53.884;11.446;2023-04-29T12:47:57;101435.44;;;22.92
28905;BMP280;60848;53.884;11.446;2023-04-29T12:50:37;101433.75;;;22.86
28905;BMP280;60848;53.884;11.446;2023-04-29T12:53:07;101436.88;;;22.72
28905;BMP280;60848;53.884;11.446;2023-04-29T12:55:37;101445.75;;;22.56
28905;BMP280;60848;53.884;11.446;2023-04-29T12:58:06;101443.22;;;22.40
28905;BMP280;60848;53.884;11.446;2023-04-29T13:00:35;101438.31;;;22.26
28905;BMP280;60848;53.884;11.446;2023-04-29T13:03:04;101440.97;;;22.14
28905;BMP280;60848;53.884;11.446;2023-04-29T13:05:33;101436.91;;;21.97
28905;BMP280;60848;53.884;11.446;2023-04-29T13:08:02;101436.22;;;21.80
28905;BMP280;60848;53.884;11.446;2023-04-29T13:10:32;101441.59;;;21.64
28905;BMP280;60848;53.884;11.446;2023-04-29T13:13:03;101433.16;;;21.53
28905;BMP280;60848;53.884;11.446;2023-04-29T13:15:31;101431.66;;;21.40
28905;BMP280;60848;53.884;11.446;2023-04-29T13:18:00;101440.00;;;21.26
28905;BMP280;60848;53.884;11.446;2023-04-29T13:20:29;101437.25;;;21.13
28905;BMP280;60848;53.884;11.446;2023-04-29T13:22:58;101432.88;;;21.07
28905;BMP280;60848;53.884;11.446;2023-04-29T13:25:27;101446.25;;;21.03
28905;BMP280;60848;53.884;11.446;2023-04-29T13:27:56;101440.66;;;20.98
28905;BMP280;60848;53.884;11.446;2023-04-29T13:30:26;101427.00;;;20.83
28905;BMP280;60848;53.884;11.446;2023-04-29T13:32:54;101426.72;;;20.78
28905;BMP280;60848;53.884;11.446;2023-04-29T13:35:35;101425.56;;;20.63
28905;BMP280;60848;53.884;11.446;2023-04-29T13:38:04;101427.97;;;20.57
28905;BMP280;60848;53.884;11.446;2023-04-29T13:40:33;101430.31;;;20.55
28905;BMP280;60848;53.884;11.446;2023-04-29T13:43:06;101427.38;;;20.50
28905;BMP280;60848;53.884;11.446;2023-04-29T13:45:38;101433.56;;;20.43
28905;BMP280;60848;53.884;11.446;2023-04-29T13:48:12;101431.44;;;20.38
28905;BMP280;60848;53.884;11.446;2023-04-29T13:51:02;101428.97;;;20.28
28905;BMP280;60848;53.884;11.446;2023-04-29T13:53:51;101431.47;;;20.19
28905;BMP280;60848;53.884;11.446;2023-04-29T13:56:22;101434.59;;;20.14
28905;BMP280;60848;53.884;11.446;2023-04-29T13:59:11;101429.03;;;20.08
28905;BMP280;60848;53.884;11.446;2023-04-29T14:02:02;101431.56;;;19.96
28905;BMP280;60848;53.884;11.446;2023-04-29T14:04:33;101426.94;;;19.80
28905;BMP280;60848;53.884;11.446;2023-04-29T14:07:02;101433.63;;;19.65
28905;BMP280;60848;53.884;11.446;2023-04-29T14:09:30;101426.53;;;19.62